Time;durP1;ratioP1;P1;durP2;ratioP2;P2;SDS_P1;SDS_P2;PMS_P1;PMS_P2;Temp;Humidity;BMP_temperature;BMP_pressure;BME280_temperature;BME280_humidity;BME280_pressure;Samples;Min_cycle;Max_cycle;Signal;HPM_P1;HPM_P2
2022/10/01 00:02:31;;;;;;;13.52;11.93;;;;;;;;;;4364294;32;20066;-79
2022/10/01 00:05:00;;;;;;;16.08;13.27;;;;;;;;;;4363098;33;20031;-79
2022/10/01 00:07:35;;;;;;;18.92;12.48;;;;;;;;;;4348998;33;20081;-78
2022/10/01 00:10:01;;;;;;;16.52;11.77;;;;;;;;;;4349771;33;20050;-76
2022/10/01 00:12:35;;;;;;;;;;;;;;;;;;4349157;33;20073;-76
2022/10/01 00:15:01;;;;;;;17.80;13.75;;;;;;;;;;4363095;32;19938;-76
2022/10/01 00:17:26;;;;;;;13.77;10.63;;;;;;;;;;4362672;33;20057;-77
2022/10/01 00:19:58;;;;;;;;;;;;;;;;;;4349115;33;20097;-78
2022/10/01 00:22:23;;;;;;;12.35;10.35;;;;;;;;;;4349743;33;19939;-77
2022/10/01 00:24:49;;;;;;;;;;;;;;;;;;4349378;33;20023;-77
2022/10/01 00:27:16;;;;;;;10.75;9.65;;;;;;;;;;4363568;32;19973;-79
2022/10/01 00:29:49;;;;;;;8.77;7.90;;;;;;;;;;4360858;32;20268;-78
2022/10/01 00:32:15;;;;;;;11.30;8.90;;;;;;;;;;4349223;33;20030;-79
2022/10/01 00:34:40;;;;;;;;;;;;;;;;;;4349384;33;20041;-77
2022/10/01 00:37:08;;;;;;;9.75;8.60;;;;;;;;;;4349097;33;19938;-77
2022/10/01 00:39:33;;;;;;;10.70;9.70;;;;;;;;;;4353611;27;20055;-65
2022/10/01 00:41:58;;;;;;;;;;;;;;;;;;4332938;33;20413;-66
2022/10/01 00:44:34;;;;;;;14.57;9.52;;;;;;;;;;4339957;33;20344;-66
2022/10/01 00:47:11;;;;;;;9.88;8.85;;;;;;;;;;4347910;33;20059;-66
2022/10/01 00:49:38;;;;;;;11.48;10.00;;;;;;;;;;4348558;33;20076;-65
2022/10/01 00:52:05;;;;;;;12.02;9.70;;;;;;;;;;4348271;33;20366;-66
2022/10/01 00:54:36;;;;;;;9.02;8.07;;;;;;;;;;4347763;33;20391;-66
2022/10/01 00:57:02;;;;;;;10.15;9.02;;;;;;;;;;4346936;33;20065;-66
2022/10/01 00:59:28;;;;;;;9.93;8.68;;;;;;;;;;4348029;33;20047;-66
2022/10/01 01:01:53;;;;;;;;;;;;;;;;;;4347343;33;20074;-66
2022/10/01 01:04:18;;;;;;;16.55;9.52;;;;;;;;;;4347175;33;19954;-65
2022/10/01 01:06:54;;;;;;;10.40;9.30;;;;;;;;;;4346680;33;20032;-66
2022/10/01 01:09:20;;;;;;;12.80;9.18;;;;;;;;;;4347712;33;20055;-66
2022/10/01 01:11:51;;;;;;;13.18;9.07;;;;;;;;;;4348768;33;20115;-66
2022/10/01 01:14:35;;;;;;;12.37;9.65;;;;;;;;;;4347465;33;20031;-65
2022/10/01 01:17:07;;;;;;;13.30;10.50;;;;;;;;;;4349666;33;20024;-66
2022/10/01 01:19:49;;;;;;;10.85;9.05;;;;;;;;;;4348653;33;20020;-66
2022/10/01 01:22:15;;;;;;;14.65;9.50;;;;;;;;;;4347353;33;20078;-65
2022/10/01 01:24:40;;;;;;;;;;;;;;;;;;4347175;33;20051;-66
2022/10/01 01:27:20;;;;;;;11.27;9.13;;;;;;;;;;4346540;33;20257;-65
2022/10/01 01:30:19;;;;;;;10.18;9.18;;;;;;;;;;4348058;33;20095;-65
2022/10/01 01:32:52;;;;;;;9.52;8.50;;;;;;;;;;4307591;33;20062;-65
2022/10/01 01:35:24;;;;;;;8.43;7.62;;;;;;;;;;4346177;33;20095;-65
2022/10/01 01:37:52;;;;;;;8.38;7.43;;;;;;;;;;4347750;33;20082;-65
2022/10/01 01:40:18;;;;;;;7.72;7.03;;;;;;;;;;4347322;33;20407;-64
2022/10/01 01:42:43;;;;;;;;;;;;;;;;;;4348207;33;20114;-65
2022/10/01 01:45:10;;;;;;;8.70;6.20;;;;;;;;;;4346510;33;20336;-65
2022/10/01 01:47:37;;;;;;;7.25;5.90;;;;;;;;;;4334322;33;20154;-65
2022/10/01 01:50:03;;;;;;;6.97;6.28;;;;;;;;;;4346722;33;20027;-64
2022/10/01 01:52:29;;;;;;;6.50;5.90;;;;;;;;;;4347558;33;20043;-64
2022/10/01 01:54:54;;;;;;;;;;;;;;;;;;4334787;33;20086;-65
2022/10/01 01:57:19;;;;;;;9.52;6.82;;;;;;;;;;4346002;33;19978;-64
2022/10/01 01:59:45;;;;;;;9.27;7.82;;;;;;;;;;4347427;33;20078;-65
2022/10/01 02:02:18;;;;;;;9.88;7.72;;;;;;;;;;4347887;33;20036;-65
2022/10/01 02:04:46;;;;;;;10.40;8.38;;;;;;;;;;4347087;33;20102;-65
2022/10/01 02:07:27;;;;;;;11.60;7.50;;;;;;;;;;4346720;33;20040;-65
2022/10/01 02:09:52;;;;;;;8.55;7.32;;;;;;;;;;4346314;33;20028;-64
2022/10/01 02:12:23;;;;;;;13.02;8.00;;;;;;;;;;4347919;33;20023;-64
2022/10/01 02:14:53;;;;;;;8.25;7.45;;;;;;;;;;4347878;33;20185;-65
2022/10/01 02:17:18;;;;;;;9.00;7.15;;;;;;;;;;4347417;33;20035;-65
2022/10/01 02:19:55;;;;;;;11.80;7.70;;;;;;;;;;4345844;33;20050;-65
2022/10/01 02:22:23;;;;;;;11.95;8.25;;;;;;;;;;4346209;33;20070;-65
2022/10/01 02:24:49;;;;;;;8.25;7.12;;;;;;;;;;4347403;33;20106;-64
2022/10/01 02:27:24;;;;;;;8.82;8.02;;;;;;;;;;4347441;33;20054;-65
2022/10/01 02:29:49;;;;;;;10.52;8.77;;;;;;;;;;4346888;33;20071;-65
2022/10/01 02:32:14;;;;;;;;;;;;;;;;;;4334303;33;20020;-64
2022/10/01 02:34:40;;;;;;;8.43;7.20;;;;;;;;;;4346779;33;20014;-65
2022/10/01 02:37:06;;;;;;;9.60;7.80;;;;;;;;;;4346863;33;20054;-64
2022/10/01 02:39:32;;;;;;;7.45;6.75;;;;;;;;;;4346160;33;20040;-65
2022/10/01 02:41:58;;;;;;;8.80;7.70;;;;;;;;;;4347469;33;20043;-64
2022/10/01 02:44:23;;;;;;;;;;;;;;;;;;4347518;33;20047;-64
2022/10/01 02:46:48;;;;;;;9.63;7.90;;;;;;;;;;4347029;33;19944;-64
2022/10/01 02:49:13;;;;;;;9.20;7.12;;;;;;;;;;4347315;33;20031;-65
2022/10/01 02:51:39;;;;;;;;;;;;;;;;;;4345888;33;20074;-64
2022/10/01 02:54:08;;;;;;;8.07;6.82;;;;;;;;;;4347393;33;19942;-65
2022/10/01 02:59:19;;;;;;;7.70;6.90;;;;;;;;;;4346999;33;20042;-65
2022/10/01 03:01:44;;;;;;;8.68;7.75;;;;;;;;;;4346845;33;20036;-64
2022/10/01 03:04:09;;;;;;;;;;;;;;;;;;4345967;33;20390;-64
2022/10/01 03:06:35;;;;;;;10.65;7.95;;;;;;;;;;4346452;33;19942;-65
2022/10/01 03:09:00;;;;;;;8.85;8.02;;;;;;;;;;4346049;33;20094;-65
2022/10/01 03:11:25;;;;;;;;;;;;;;;;;;4346402;33;20028;-64
2022/10/01 03:13:51;;;;;;;10.85;8.88;;;;;;;;;;4345505;33;20294;-64
2022/10/01 03:16:16;;;;;;;9.40;8.23;;;;;;;;;;4345101;33;20055;-64
2022/10/01 03:18:41;;;;;;;;;;;;;;;;;;4345967;33;20027;-64
2022/10/01 03:21:06;;;;;;;8.30;7.40;;;;;;;;;;4345435;33;19993;-64
2022/10/01 03:23:31;;;;;;;8.52;7.60;;;;;;;;;;4345402;33;20055;-64
2022/10/01 03:25:57;;;;;;;8.07;7.37;;;;;;;;;;4345263;33;20027;-64
2022/10/01 03:28:22;;;;;;;8.63;7.57;;;;;;;;;;4346309;33;20330;-63
2022/10/01 03:30:47;;;;;;;;;;;;;;;;;;4345148;33;20162;-63
2022/10/01 03:33:12;;;;;;;8.15;7.37;;;;;;;;;;4344894;33;20277;-63
2022/10/01 03:35:37;;;;;;;7.47;6.78;;;;;;;;;;4344821;33;20051;-63
2022/10/01 03:38:02;;;;;;;7.45;6.75;;;;;;;;;;4345037;33;20023;-63
2022/10/01 03:40:27;;;;;;;6.53;5.90;;;;;;;;;;4344912;33;20128;-63
2022/10/01 03:42:53;;;;;;;;;;;;;;;;;;4347284;33;20054;-63
2022/10/01 03:45:18;;;;;;;7.53;6.82;;;;;;;;;;4346637;33;19935;-63
2022/10/01 03:47:43;;;;;;;9.27;6.32;;;;;;;;;;4345101;33;20024;-64
2022/10/01 03:50:08;;;;;;;6.72;6.00;;;;;;;;;;4345309;33;20083;-63
2022/10/01 03:52:34;;;;;;;7.62;6.35;;;;;;;;;;4345218;33;20116;-63
2022/10/01 03:54:59;;;;;;;6.35;5.75;;;;;;;;;;4345312;33;20090;-63
2022/10/01 03:57:24;;;;;;;7.75;6.35;;;;;;;;;;4345288;33;20031;-63
2022/10/01 03:59:50;;;;;;;7.10;6.32;;;;;;;;;;4345818;33;20419;-64
2022/10/01 04:02:15;;;;;;;;;;;;;;;;;;4346732;33;20035;-63
2022/10/01 04:04:40;;;;;;;8.10;6.43;;;;;;;;;;4348673;33;19970;-64
2022/10/01 04:07:05;;;;;;;10.23;6.53;;;;;;;;;;4347550;33;20079;-65
2022/10/01 04:09:30;;;;;;;9.82;7.22;;;;;;;;;;4346124;33;20036;-63
2022/10/01 04:11:55;;;;;;;10.05;7.50;;;;;;;;;;4345133;33;20113;-63
2022/10/01 04:14:20;;;;;;;6.87;6.00;;;;;;;;;;4345266;33;20089;-63
2022/10/01 04:16:48;;;;;;;6.93;6.20;;;;;;;;;;4345836;33;20051;-63
2022/10/01 04:19:13;;;;;;;7.85;6.53;;;;;;;;;;4331554;33;20066;-63
2022/10/01 04:21:38;;;;;;;9.15;5.97;;;;;;;;;;4345238;33;20410;-64
2022/10/01 04:24:04;;;;;;;;;;;;;;;;;;4332746;33;20031;-62
2022/10/01 04:26:29;;;;;;;10.73;6.00;;;;;;;;;;4346043;33;20420;-63
2022/10/01 04:28:54;;;;;;;8.43;5.62;;;;;;;;;;4348905;33;20028;-63
2022/10/01 04:31:25;;;;;;;6.87;5.10;;;;;;;;;;4348381;33;20082;-63
2022/10/01 04:33:54;;;;;;;7.47;5.03;;;;;;;;;;4347555;33;20051;-64
2022/10/01 04:36:19;;;;;;;6.05;4.55;;;;;;;;;;4348557;33;20105;-64
2022/10/01 04:38:45;;;;;;;15.15;4.93;;;;;;;;;;4348184;33;20040;-64
2022/10/01 04:41:10;;;;;;;;;;;;;;;;;;4347893;33;20046;-63
2022/10/01 04:43:35;;;;;;;9.85;4.05;;;;;;;;;;4347640;33;19949;-63
2022/10/01 04:46:00;;;;;;;;;;;;;;;;;;4349241;33;20203;-63
2022/10/01 04:48:26;;;;;;;6.57;4.43;;;;;;;;;;4347279;33;19935;-63
2022/10/01 04:50:51;;;;;;;6.00;4.03;;;;;;;;;;4348757;33;20074;-64
2022/10/01 04:53:16;;;;;;;6.30;4.20;;;;;;;;;;4347349;33;20095;-63
2022/10/01 04:55:41;;;;;;;12.90;4.78;;;;;;;;;;4333244;33;20061;-63
2022/10/01 04:58:06;;;;;;;10.55;4.72;;;;;;;;;;4346670;33;20031;-63
2022/10/01 05:00:31;;;;;;;5.95;4.10;;;;;;;;;;4347386;33;20068;-63
2022/10/01 05:02:57;;;;;;;6.30;5.12;;;;;;;;;;4347232;33;20394;-64
2022/10/01 05:05:23;;;;;;;9.70;6.12;;;;;;;;;;4348244;33;20032;-63
2022/10/01 05:07:48;;;;;;;12.55;5.28;;;;;;;;;;4346756;33;20049;-63
2022/10/01 05:10:15;;;;;;;6.60;5.43;;;;;;;;;;4347958;33;20031;-64
2022/10/01 05:12:41;;;;;;;8.35;4.95;;;;;;;;;;4348173;33;20089;-64
2022/10/01 05:15:06;;;;;;;8.27;5.65;;;;;;;;;;4347079;33;20035;-64
2022/10/01 05:17:32;;;;;;;5.32;4.82;;;;;;;;;;4347756;33;20023;-64
2022/10/01 05:19:58;;;;;;;18.77;6.97;;;;;;;;;;4346983;33;20449;-65
2022/10/01 05:22:23;;;;;;;;;;;;;;;;;;4346808;33;20035;-65
2022/10/01 05:24:48;;;;;;;11.80;5.57;;;;;;;;;;4352896;33;19935;-63
2022/10/01 05:27:13;;;;;;;14.05;5.37;;;;;;;;;;4351039;33;20028;-64
2022/10/01 05:29:41;;;;;;;13.02;6.50;;;;;;;;;;4333276;33;20109;-63
2022/10/01 05:32:10;;;;;;;11.05;6.05;;;;;;;;;;4346573;33;20023;-64
2022/10/01 05:34:36;;;;;;;10.50;6.12;;;;;;;;;;4347493;33;20062;-64
2022/10/01 05:37:01;;;;;;;;;;;;;;;;;;4348121;33;20353;-64
2022/10/01 05:39:27;;;;;;;13.77;6.68;;;;;;;;;;4347665;33;19939;-63
2022/10/01 05:41:54;;;;;;;;;;;;;;;;;;4333037;33;20035;-64
2022/10/01 05:44:19;;;;;;;8.25;5.70;;;;;;;;;;4347188;33;19992;-64
2022/10/01 05:46:44;;;;;;;10.18;5.82;;;;;;;;;;4347336;33;20027;-64
2022/10/01 05:49:10;;;;;;;10.60;5.80;;;;;;;;;;4346490;33;20055;-65
2022/10/01 05:51:35;;;;;;;13.68;6.62;;;;;;;;;;4346398;33;20028;-64
2022/10/01 05:54:02;;;;;;;;;;;;;;;;;;4347985;33;20047;-64
2022/10/01 05:56:28;;;;;;;13.68;6.87;;;;;;;;;;4346082;33;19939;-64
2022/10/01 05:58:53;;;;;;;;;;;;;;;;;;4345465;33;20345;-64
2022/10/01 06:01:18;;;;;;;12.77;7.12;;;;;;;;;;4330956;33;19947;-64
2022/10/01 06:03:44;;;;;;;10.35;6.43;;;;;;;;;;4345330;33;20023;-64
2022/10/01 06:06:09;;;;;;;11.93;6.60;;;;;;;;;;4347602;33;20105;-64
2022/10/01 06:08:35;;;;;;;20.42;7.55;;;;;;;;;;4346440;33;20370;-64
2022/10/01 06:11:01;;;;;;;15.27;7.43;;;;;;;;;;4346518;33;20070;-64
2022/10/01 06:13:27;;;;;;;;;;;;;;;;;;4347574;33;20418;-64
2022/10/01 06:15:52;;;;;;;18.60;9.27;;;;;;;;;;4346601;33;19976;-63
2022/10/01 06:18:17;;;;;;;22.50;9.60;;;;;;;;;;4347261;33;20028;-64
2022/10/01 06:20:43;;;;;;;25.70;9.98;;;;;;;;;;4345888;33;20027;-64
2022/10/01 06:23:11;;;;;;;20.73;9.67;;;;;;;;;;4347133;33;20415;-64
2022/10/01 06:25:37;;;;;;;24.65;10.30;;;;;;;;;;4345843;33;20190;-64
2022/10/01 06:28:04;;;;;;;30.65;11.50;;;;;;;;;;4346623;33;20047;-63
2022/10/01 06:30:30;;;;;;;29.45;9.93;;;;;;;;;;4346713;33;20134;-64
2022/10/01 06:32:55;;;;;;;;;;;;;;;;;;4334146;33;20062;-64
2022/10/01 06:35:21;;;;;;;33.33;11.03;;;;;;;;;;4346553;33;19977;-64
2022/10/01 06:37:46;;;;;;;23.58;8.38;;;;;;;;;;4332993;33;20062;-64
2022/10/01 06:40:11;;;;;;;14.18;6.50;;;;;;;;;;4345899;33;20052;-64
2022/10/01 06:42:36;;;;;;;14.93;6.43;;;;;;;;;;4352624;33;20032;-63
2022/10/01 06:45:01;;;;;;;13.32;5.62;;;;;;;;;;4349443;33;20028;-64
2022/10/01 06:47:29;;;;;;;12.37;6.40;;;;;;;;;;4345817;33;20091;-63
2022/10/01 06:49:54;;;;;;;12.00;5.75;;;;;;;;;;4331987;33;20472;-64
2022/10/01 06:55:03;;;;;;;22.67;7.97;;;;;;;;;;4346934;33;20452;-65
2022/10/01 06:57:29;;;;;;;18.27;6.87;;;;;;;;;;4346230;33;20047;-65
2022/10/01 06:59:54;;;;;;;14.80;7.32;;;;;;;;;;4345893;33;20406;-65
2022/10/01 07:02:22;;;;;;;12.00;5.25;;;;;;;;;;4344934;33;20027;-64
2022/10/01 07:04:47;;;;;;;14.52;6.60;;;;;;;;;;4346551;33;20036;-64
2022/10/01 07:07:12;;;;;;;15.20;6.20;;;;;;;;;;4342881;33;20425;-64
2022/10/01 07:09:37;;;;;;;17.40;7.05;;;;;;;;;;4344602;33;20085;-65
2022/10/01 07:12:02;;;;;;;22.40;7.53;;;;;;;;;;4346617;33;20389;-65
2022/10/01 07:14:27;;;;;;;15.80;6.95;;;;;;;;;;4348597;33;20073;-64
2022/10/01 07:16:53;;;;;;;16.00;7.90;;;;;;;;;;4347075;33;20032;-63
2022/10/01 07:19:18;;;;;;;17.23;6.80;;;;;;;;;;4345764;33;20435;-65
2022/10/01 07:21:46;;;;;;;17.92;5.97;;;;;;;;;;4342448;33;20171;-64
2022/10/01 07:24:11;;;;;;;21.23;6.70;;;;;;;;;;4344940;33;20035;-63
2022/10/01 07:26:36;;;;;;;16.02;6.07;;;;;;;;;;4341898;33;20150;-63
2022/10/01 07:29:02;;;;;;;14.75;5.68;;;;;;;;;;4340075;33;20207;-64
2022/10/01 07:31:27;;;;;;;17.67;5.40;;;;;;;;;;4344665;33;20092;-63
2022/10/01 07:33:55;;;;;;;20.85;5.75;;;;;;;;;;4345289;33;20032;-64
2022/10/01 07:36:21;;;;;;;14.20;4.60;;;;;;;;;;4346531;33;20040;-64
2022/10/01 07:38:47;;;;;;;13.75;4.53;;;;;;;;;;4345512;33;20069;-63
2022/10/01 07:41:15;;;;;;;14.45;4.30;;;;;;;;;;4346583;33;20057;-63
2022/10/01 07:43:41;;;;;;;18.08;5.12;;;;;;;;;;4331096;33;20081;-63
2022/10/01 07:46:06;;;;;;;10.77;4.45;;;;;;;;;;4345831;33;20044;-62
2022/10/01 07:48:31;;;;;;;14.60;4.22;;;;;;;;;;4346347;33;20051;-63
2022/10/01 07:50:56;;;;;;;13.40;5.10;;;;;;;;;;4344984;33;20156;-63
2022/10/01 07:53:22;;;;;;;16.43;4.37;;;;;;;;;;4345403;33;20095;-64
2022/10/01 07:55:47;;;;;;;17.85;5.28;;;;;;;;;;4345651;33;20154;-63
2022/10/01 07:58:12;;;;;;;33.80;7.35;;;;;;;;;;4347514;33;20096;-65
2022/10/01 08:00:38;;;;;;;15.55;5.53;;;;;;;;;;4349627;33;20035;-63
2022/10/01 08:03:03;;;;;;;17.73;4.87;;;;;;;;;;4338932;33;20536;-65
2022/10/01 08:05:31;;;;;;;23.95;6.28;;;;;;;;;;4351055;33;20078;-64
2022/10/01 08:08:03;;;;;;;20.92;5.22;;;;;;;;;;4349572;33;20036;-64
2022/10/01 08:10:29;;;;;;;15.98;4.40;;;;;;;;;;4350373;33;20073;-65
2022/10/01 08:12:58;;;;;;;30.20;4.85;;;;;;;;;;4349463;33;20028;-63
2022/10/01 08:15:23;;;;;;;19.67;5.30;;;;;;;;;;4349163;33;20032;-63
2022/10/01 08:17:48;;;;;;;20.27;3.87;;;;;;;;;;4350305;33;20103;-64
2022/10/01 08:20:15;;;;;;;21.62;4.18;;;;;;;;;;4349822;33;20147;-64
2022/10/01 08:22:40;;;;;;;22.87;4.40;;;;;;;;;;4347984;33;20063;-65
2022/10/01 08:25:05;;;;;;;18.10;4.65;;;;;;;;;;4348022;33;20292;-65
2022/10/01 08:27:30;;;;;;;16.77;3.30;;;;;;;;;;4334262;33;20327;-64
2022/10/01 08:29:56;;;;;;;13.90;3.83;;;;;;;;;;4349782;33;20031;-65
2022/10/01 08:32:24;;;;;;;16.83;3.75;;;;;;;;;;4347653;33;20118;-63
2022/10/01 08:34:50;;;;;;;14.10;3.75;;;;;;;;;;4346357;33;20106;-64
2022/10/01 08:37:16;;;;;;;22.58;3.97;;;;;;;;;;4348156;33;20082;-64
2022/10/01 08:39:41;;;;;;;19.37;3.80;;;;;;;;;;4330218;33;20039;-64
2022/10/01 08:42:18;;;;;;;15.13;3.87;;;;;;;;;;4331979;33;20419;-63
2022/10/01 08:44:44;;;;;;;16.60;3.17;;;;;;;;;;4334331;33;20166;-64
2022/10/01 08:47:16;;;;;;;17.00;3.85;;;;;;;;;;4318436;33;20082;-65
2022/10/01 08:49:49;;;;;;;19.35;3.60;;;;;;;;;;4333472;33;20051;-64
2022/10/01 08:52:23;;;;;;;15.35;3.65;;;;;;;;;;4333210;33;20012;-64
2022/10/01 08:54:56;;;;;;;16.27;3.17;;;;;;;;;;4319196;33;20070;-64
2022/10/01 08:57:23;;;;;;;19.87;3.47;;;;;;;;;;4338951;33;20027;-65
2022/10/01 08:59:50;;;;;;;19.85;2.78;;;;;;;;;;4346554;33;20032;-65
2022/10/01 09:02:15;;;;;;;19.02;3.75;;;;;;;;;;4346297;33;20062;-64
2022/10/01 09:04:41;;;;;;;13.32;2.85;;;;;;;;;;4347106;33;20044;-64
2022/10/01 09:07:12;;;;;;;20.33;2.72;;;;;;;;;;4346927;33;20035;-63
2022/10/01 09:09:43;;;;;;;20.37;5.87;;;;;;;;;;4347962;33;20074;-64
2022/10/01 09:12:11;;;;;;;22.77;4.12;;;;;;;;;;4347866;33;20053;-64
2022/10/01 09:14:36;;;;;;;16.17;3.05;;;;;;;;;;4350722;33;20020;-62
2022/10/01 09:17:12;;;;;;;19.75;4.03;;;;;;;;;;4334980;33;20139;-65
2022/10/01 09:19:56;;;;;;;10.02;3.53;;;;;;;;;;4354326;33;20040;-64
2022/10/01 09:22:32;;;;;;;17.40;3.40;;;;;;;;;;4346696;33;20086;-65
2022/10/01 09:25:00;;;;;;;13.98;2.90;;;;;;;;;;4347595;33;20073;-65
2022/10/01 09:27:26;;;;;;;15.18;3.33;;;;;;;;;;4333878;33;20045;-63
2022/10/01 09:29:51;;;;;;;11.68;3.08;;;;;;;;;;4347006;33;20028;-64
2022/10/01 09:32:21;;;;;;;16.10;3.12;;;;;;;;;;4346996;33;20074;-64
2022/10/01 09:34:46;;;;;;;27.10;3.80;;;;;;;;;;4334145;33;20059;-64
2022/10/01 09:37:13;;;;;;;13.00;3.10;;;;;;;;;;4346530;33;20024;-64
2022/10/01 09:39:45;;;;;;;20.62;3.15;;;;;;;;;;4346641;33;20385;-64
2022/10/01 09:42:10;;;;;;;18.30;3.03;;;;;;;;;;4346365;33;20122;-64
2022/10/01 09:44:36;;;;;;;15.68;3.22;;;;;;;;;;4333977;33;20055;-65
2022/10/01 09:47:01;;;;;;;17.25;3.40;;;;;;;;;;4332114;33;20085;-64
2022/10/01 09:49:33;;;;;;;18.87;3.10;;;;;;;;;;4337312;33;20024;-64
2022/10/01 09:52:19;;;;;;;10.95;2.72;;;;;;;;;;4343434;33;20040;-64
2022/10/01 09:54:47;;;;;;;15.90;3.25;;;;;;;;;;4347216;33;20023;-64
2022/10/01 09:57:14;;;;;;;18.92;3.30;;;;;;;;;;4347529;33;20036;-63
2022/10/01 09:59:44;;;;;;;14.90;2.95;;;;;;;;;;4347623;33;20027;-64
2022/10/01 10:02:16;;;;;;;10.63;2.90;;;;;;;;;;4333928;33;20174;-64
2022/10/01 10:04:41;;;;;;;13.15;4.03;;;;;;;;;;4333178;33;20027;-65
2022/10/01 10:07:06;;;;;;;13.70;2.92;;;;;;;;;;4346683;33;20054;-64
2022/10/01 10:09:33;;;;;;;16.50;3.28;;;;;;;;;;4345965;33;20027;-64
2022/10/01 10:11:59;;;;;;;12.90;3.37;;;;;;;;;;4345773;33;20117;-64
2022/10/01 10:14:29;;;;;;;13.43;3.17;;;;;;;;;;4345409;33;20490;-63
2022/10/01 10:16:55;;;;;;;13.27;2.80;;;;;;;;;;4345278;33;20107;-64
2022/10/01 10:19:23;;;;;;;14.05;3.12;;;;;;;;;;4345211;33;20525;-63
2022/10/01 10:21:52;;;;;;;13.02;2.95;;;;;;;;;;4347308;33;20031;-64
2022/10/01 10:24:22;;;;;;;9.27;2.42;;;;;;;;;;4346859;33;20024;-64
2022/10/01 10:26:55;;;;;;;15.07;2.75;;;;;;;;;;4345607;33;20036;-64
2022/10/01 10:29:31;;;;;;;9.57;2.33;;;;;;;;;;4346568;33;20113;-64
2022/10/01 10:31:57;;;;;;;10.73;2.40;;;;;;;;;;4346133;33;20024;-65
2022/10/01 10:34:32;;;;;;;13.02;3.10;;;;;;;;;;4348360;33;20073;-65
2022/10/01 10:36:59;;;;;;;16.58;2.97;;;;;;;;;;4347316;33;20082;-63
2022/10/01 10:39:29;;;;;;;8.23;2.58;;;;;;;;;;4345828;33;20039;-63
2022/10/01 10:41:55;;;;;;;16.27;3.00;;;;;;;;;;4345954;33;20028;-64
2022/10/01 10:44:21;;;;;;;9.65;2.72;;;;;;;;;;4345709;33;20097;-64
2022/10/01 10:46:48;;;;;;;13.77;2.58;;;;;;;;;;4346740;33;20032;-64
2022/10/01 10:49:20;;;;;;;16.33;3.33;;;;;;;;;;4346355;33;20032;-64
2022/10/01 10:51:52;;;;;;;12.10;2.97;;;;;;;;;;4344859;33;20347;-63
2022/10/01 10:54:23;;;;;;;20.05;3.42;;;;;;;;;;4345037;33;20035;-64
2022/10/01 10:57:12;;;;;;;15.10;3.30;;;;;;;;;;4346960;33;20031;-64
2022/10/01 10:59:37;;;;;;;11.20;2.55;;;;;;;;;;4340522;33;20070;-64
2022/10/01 11:02:04;;;;;;;13.25;3.55;;;;;;;;;;4330955;33;20050;-66
2022/10/01 11:04:38;;;;;;;10.73;3.53;;;;;;;;;;4346454;33;20053;-65
2022/10/01 11:07:04;;;;;;;14.50;3.80;;;;;;;;;;4331166;33;20047;-65
2022/10/01 11:09:42;;;;;;;20.45;3.05;;;;;;;;;;4345646;33;20039;-65
2022/10/01 11:12:13;;;;;;;15.25;2.87;;;;;;;;;;4331999;33;20020;-65
2022/10/01 11:14:48;;;;;;;17.42;3.33;;;;;;;;;;4344905;33;20057;-65
2022/10/01 11:17:13;;;;;;;11.63;3.08;;;;;;;;;;4345724;33;20047;-66
2022/10/01 11:19:41;;;;;;;13.37;3.73;;;;;;;;;;4344643;33;20040;-64
2022/10/01 11:22:21;;;;;;;14.68;3.65;;;;;;;;;;4344987;33;20124;-65
2022/10/01 11:25:05;;;;;;;13.25;3.35;;;;;;;;;;4345700;33;20050;-64
2022/10/01 11:27:47;;;;;;;14.27;3.67;;;;;;;;;;4345400;33;20060;-65
2022/10/01 11:30:18;;;;;;;11.63;2.42;;;;;;;;;;4346557;33;20056;-64
2022/10/01 11:32:52;;;;;;;16.40;2.92;;;;;;;;;;4345816;33;20031;-63
2022/10/01 11:35:38;;;;;;;12.75;2.65;;;;;;;;;;4346012;33;20437;-63
2022/10/01 11:38:22;;;;;;;15.02;2.92;;;;;;;;;;4347791;33;20381;-65
2022/10/01 11:40:59;;;;;;;14.95;3.83;;;;;;;;;;4349554;33;20066;-65
2022/10/01 11:43:27;;;;;;;10.48;2.80;;;;;;;;;;4347550;33;20024;-65
2022/10/01 11:45:55;;;;;;;15.05;3.35;;;;;;;;;;4348321;33;20089;-65
2022/10/01 11:48:43;;;;;;;16.50;3.37;;;;;;;;;;4347663;33;20575;-65
2022/10/01 11:51:11;;;;;;;12.75;3.42;;;;;;;;;;4344779;33;20381;-65
2022/10/01 11:53:38;;;;;;;15.23;3.33;;;;;;;;;;4349791;33;20039;-64
2022/10/01 11:59:00;;;;;;;13.60;3.40;;;;;;;;;;4348461;33;20050;-64
2022/10/01 12:01:37;;;;;;;24.80;4.32;;;;;;;;;;4335543;33;20054;-65
2022/10/01 12:04:06;;;;;;;15.40;3.95;;;;;;;;;;4348879;33;20027;-65
2022/10/01 12:06:37;;;;;;;20.65;3.95;;;;;;;;;;4347290;33;20089;-65
2022/10/01 12:09:08;;;;;;;13.32;2.97;;;;;;;;;;4346820;33;20023;-65
2022/10/01 12:11:41;;;;;;;11.45;2.70;;;;;;;;;;4348862;33;20070;-65
2022/10/01 12:14:11;;;;;;;16.90;3.60;;;;;;;;;;4347328;33;20032;-65
2022/10/01 12:16:46;;;;;;;10.98;2.90;;;;;;;;;;4347716;33;20117;-63
2022/10/01 12:19:25;;;;;;;12.37;3.03;;;;;;;;;;4348722;33;20027;-64
2022/10/01 12:21:58;;;;;;;11.85;2.72;;;;;;;;;;4348614;33;20070;-65
2022/10/01 12:24:26;;;;;;;12.63;2.95;;;;;;;;;;4348774;33;20048;-65
2022/10/01 12:26:55;;;;;;;14.40;3.78;;;;;;;;;;4347044;33;20334;-65
2022/10/01 12:29:20;;;;;;;10.75;3.20;;;;;;;;;;4348291;33;20154;-65
2022/10/01 12:31:50;;;;;;;13.57;3.27;;;;;;;;;;4348144;33;20398;-64
2022/10/01 12:34:24;;;;;;;10.20;2.95;;;;;;;;;;4332910;33;20143;-64
2022/10/01 12:37:11;;;;;;;11.02;3.22;;;;;;;;;;4347573;33;20465;-65
2022/10/01 12:39:39;;;;;;;14.18;3.55;;;;;;;;;;4347282;33;20074;-65
2022/10/01 12:42:24;;;;;;;12.82;3.60;;;;;;;;;;4346878;33;20110;-65
2022/10/01 12:44:59;;;;;;;13.35;3.58;;;;;;;;;;4333308;33;20123;-64
2022/10/01 12:47:44;;;;;;;11.12;3.17;;;;;;;;;;4347407;33;20046;-64
2022/10/01 12:50:15;;;;;;;13.65;3.28;;;;;;;;;;4347359;33;20031;-65
2022/10/01 12:52:47;;;;;;;12.93;2.47;;;;;;;;;;4347374;33;20144;-66
2022/10/01 12:55:18;;;;;;;12.32;2.67;;;;;;;;;;4346902;33;20036;-65
2022/10/01 12:57:49;;;;;;;14.00;3.65;;;;;;;;;;4347696;33;20058;-63
2022/10/01 13:00:23;;;;;;;11.85;3.12;;;;;;;;;;4333062;33;20170;-65
2022/10/01 13:02:48;;;;;;;11.63;3.05;;;;;;;;;;4348994;33;20028;-64
2022/10/01 13:05:18;;;;;;;8.10;2.87;;;;;;;;;;4349049;33;20053;-64
2022/10/01 13:08:02;;;;;;;12.82;3.65;;;;;;;;;;4347271;33;20027;-64
2022/10/01 13:10:37;;;;;;;11.95;3.10;;;;;;;;;;4344415;33;20385;-65
2022/10/01 13:13:06;;;;;;;8.63;3.43;;;;;;;;;;4345861;33;20031;-64
2022/10/01 13:15:35;;;;;;;11.25;3.12;;;;;;;;;;4334058;33;20078;-64
2022/10/01 13:18:00;;;;;;;11.25;2.70;;;;;;;;;;4344578;33;20071;-65
2022/10/01 13:20:32;;;;;;;10.23;3.05;;;;;;;;;;4347375;33;20035;-65
2022/10/01 13:23:07;;;;;;;13.55;3.62;;;;;;;;;;4346837;33;20103;-66
2022/10/01 13:25:40;;;;;;;9.63;3.10;;;;;;;;;;4347196;33;20363;-64
2022/10/01 13:28:14;;;;;;;17.30;3.72;;;;;;;;;;4345586;33;20136;-64
2022/10/01 13:30:59;;;;;;;13.30;3.55;;;;;;;;;;4348081;33;20081;-64
2022/10/01 13:33:26;;;;;;;8.82;3.60;;;;;;;;;;4347505;33;20020;-64
2022/10/01 13:35:56;;;;;;;12.73;3.17;;;;;;;;;;4345503;33;20035;-64
2022/10/01 13:38:41;;;;;;;9.75;3.00;;;;;;;;;;4346276;33;20086;-64
2022/10/01 13:41:16;;;;;;;9.25;2.92;;;;;;;;;;4334072;33;20031;-64
2022/10/01 13:43:48;;;;;;;13.50;3.17;;;;;;;;;;4347709;33;20036;-65
2022/10/01 13:46:13;;;;;;;10.70;2.90;;;;;;;;;;4333079;33;20512;-65
2022/10/01 13:48:45;;;;;;;10.70;3.12;;;;;;;;;;4346298;33;20027;-65
2022/10/01 13:51:12;;;;;;;13.62;3.10;;;;;;;;;;4331892;33;20138;-65
2022/10/01 13:53:40;;;;;;;11.35;3.15;;;;;;;;;;4345548;33;20032;-65
2022/10/01 13:56:06;;;;;;;15.90;3.28;;;;;;;;;;4345953;33;20039;-65
2022/10/01 13:58:37;;;;;;;17.30;3.42;;;;;;;;;;4326398;33;20448;-65
2022/10/01 14:01:04;;;;;;;16.83;3.58;;;;;;;;;;4331207;33;20374;-65
2022/10/01 14:03:50;;;;;;;16.83;3.87;;;;;;;;;;4331437;33;20312;-65
2022/10/01 14:06:22;;;;;;;16.60;4.80;;;;;;;;;;4335128;33;20050;-68
2022/10/01 14:08:59;;;;;;;11.95;3.55;;;;;;;;;;4345990;33;20156;-67
2022/10/01 14:17:04;;;;;;;13.90;3.70;;;;;;;;;;4347660;33;20062;-66
2022/10/01 14:19:30;;;;;;;15.60;3.50;;;;;;;;;;4345101;33;20099;-65
2022/10/01 14:21:58;;;;;;;13.35;3.05;;;;;;;;;;4347205;33;20114;-66
2022/10/01 14:24:29;;;;;;;14.07;2.83;;;;;;;;;;4340905;33;20028;-66
2022/10/01 14:26:58;;;;;;;12.50;2.95;;;;;;;;;;4330715;33;20475;-64
2022/10/01 14:29:41;;;;;;;19.20;4.70;;;;;;;;;;4330496;33;20036;-66
2022/10/01 14:32:32;;;;;;;12.60;3.25;;;;;;;;;;4330449;33;20099;-66
2022/10/01 14:34:57;;;;;;;17.85;3.78;;;;;;;;;;4332061;33;20020;-64
2022/10/01 14:37:22;;;;;;;12.32;3.47;;;;;;;;;;4341230;33;20050;-68
2022/10/01 14:39:59;;;;;;;13.38;3.60;;;;;;;;;;4344627;33;20097;-65
2022/10/01 14:42:24;;;;;;;12.68;3.10;;;;;;;;;;4345253;33;20361;-66
2022/10/01 14:44:49;;;;;;;14.30;3.40;;;;;;;;;;4345245;33;20047;-65
2022/10/01 14:47:22;;;;;;;17.25;3.55;;;;;;;;;;4346530;33;20136;-64
2022/10/01 14:49:48;;;;;;;15.38;3.92;;;;;;;;;;4344073;33;20405;-65
2022/10/01 14:52:24;;;;;;;18.30;3.25;;;;;;;;;;4345093;33;20042;-64
2022/10/01 14:54:51;;;;;;;12.50;2.67;;;;;;;;;;4332015;33;20027;-64
2022/10/01 14:57:33;;;;;;;12.20;2.85;;;;;;;;;;4346341;33;20063;-65
2022/10/01 15:00:00;;;;;;;15.18;2.85;;;;;;;;;;4331527;33;20144;-65
2022/10/01 15:02:26;;;;;;;13.62;3.50;;;;;;;;;;4345013;33;20036;-64
2022/10/01 15:04:54;;;;;;;15.70;3.20;;;;;;;;;;4346645;33;20533;-64